createdAt,value
2022-08-17T00:01:26.246Z,11.20
2022-08-17T00:03:54.727Z,11.90
2022-08-17T00:06:29.626Z,11.13
2022-08-17T00:08:59.282Z,11.38
2022-08-17T00:11:28.697Z,10.85
2022-08-17T00:13:59.730Z,11.20
2022-08-17T00:19:22.763Z,10.80
2022-08-17T00:22:33.948Z,10.52
2022-08-17T00:24:37.946Z,10.48
2022-08-17T00:27:04.345Z,10.85
2022-08-17T00:29:30.735Z,10.75
2022-08-17T00:31:57.114Z,11.13
2022-08-17T00:34:25.203Z,10.32
2022-08-17T00:36:54.437Z,11.15
2022-08-17T00:39:20.840Z,11.45
2022-08-17T00:41:47.604Z,11.00
2022-08-17T00:44:14.576Z,12.35
2022-08-17T00:46:43.606Z,11.90
2022-08-17T00:49:12.783Z,11.95
2022-08-17T00:51:50.042Z,11.93
2022-08-17T00:54:22.801Z,12.32
2022-08-17T00:56:55.048Z,11.80
2022-08-17T00:59:25.472Z,12.63
2022-08-17T01:01:52.685Z,12.45
2022-08-17T01:04:22.306Z,13.07
2022-08-17T01:06:50.086Z,11.98
2022-08-17T01:09:17.996Z,12.88
2022-08-17T01:11:46.218Z,13.27
2022-08-17T01:14:13.225Z,12.82
2022-08-17T01:16:39.797Z,12.73
2022-08-17T01:19:22.511Z,12.55
2022-08-17T01:22:03.951Z,12.82
2022-08-17T01:24:31.178Z,13.25
2022-08-17T01:27:00.347Z,13.38
2022-08-17T01:29:30.696Z,12.30
2022-08-17T01:32:00.819Z,12.73
2022-08-17T01:34:42.387Z,13.05
2022-08-17T01:37:12.496Z,13.25
2022-08-17T01:39:52.291Z,13.35
2022-08-17T01:42:34.543Z,13.23
2022-08-17T01:45:09.592Z,13.82
2022-08-17T01:47:37.301Z,13.65
2022-08-17T01:50:14.512Z,13.88
2022-08-17T01:52:42.387Z,14.05
2022-08-17T01:55:09.921Z,14.63
2022-08-17T01:57:36.367Z,13.35
2022-08-17T02:00:06.573Z,14.25
2022-08-17T02:02:33.129Z,13.90
2022-08-17T02:04:59.778Z,14.25
2022-08-17T02:07:27.060Z,14.48
2022-08-17T02:09:53.990Z,13.55
2022-08-17T02:12:37.900Z,13.88
2022-08-17T02:15:08.408Z,13.10
2022-08-17T02:17:35.063Z,13.45
2022-08-17T02:20:01.640Z,13.75
2022-08-17T02:22:29.001Z,14.15
2022-08-17T02:24:58.356Z,14.18
2022-08-17T02:27:27.900Z,14.15
2022-08-17T02:29:54.340Z,14.05
2022-08-17T02:32:27.428Z,13.65
2022-08-17T02:34:55.505Z,14.40
2022-08-17T02:37:21.951Z,15.40
2022-08-17T02:39:48.383Z,14.00
2022-08-17T02:42:15.442Z,14.73
2022-08-17T02:44:42.284Z,14.65
2022-08-17T02:47:10.235Z,13.93
2022-08-17T02:49:37.161Z,14.45
2022-08-17T02:52:05.666Z,12.63
2022-08-17T02:54:39.196Z,15.10
2022-08-17T02:57:09.801Z,14.43
2022-08-17T02:59:36.412Z,15.27
2022-08-17T03:02:04.173Z,15.25
2022-08-17T03:04:31.164Z,14.57
2022-08-17T03:07:01.555Z,14.77
2022-08-17T03:09:27.995Z,14.82
2022-08-17T03:11:55.886Z,14.88
2022-08-17T03:14:26.123Z,14.38
2022-08-17T03:16:53.003Z,15.70
2022-08-17T03:19:19.425Z,15.20
2022-08-17T03:21:45.834Z,15.35
2022-08-17T03:24:12.987Z,14.75
2022-08-17T03:26:39.466Z,15.68
2022-08-17T03:29:05.903Z,16.60
2022-08-17T03:31:32.298Z,15.27
2022-08-17T03:34:00.898Z,16.38
2022-08-17T03:36:27.378Z,15.23
2022-08-17T03:38:53.846Z,16.08
2022-08-17T03:41:21.299Z,16.73
2022-08-17T03:43:47.708Z,16.50
2022-08-17T03:46:34.984Z,17.88
2022-08-17T03:49:23.319Z,18.33
2022-08-17T03:52:08.807Z,16.65
2022-08-17T03:54:53.683Z,18.05
2022-08-17T03:57:20.301Z,18.35
2022-08-17T03:59:47.653Z,17.55
2022-08-17T04:02:20.756Z,18.52
2022-08-17T04:04:50.664Z,17.65
2022-08-17T04:07:18.306Z,18.27
2022-08-17T04:09:44.872Z,18.05
2022-08-17T04:12:11.401Z,18.13
2022-08-17T04:14:53.124Z,18.42
2022-08-17T04:17:26.773Z,18.88
2022-08-17T04:19:54.311Z,17.63
2022-08-17T04:22:32.897Z,18.13
2022-08-17T04:25:18.887Z,18.38
2022-08-17T04:27:45.340Z,18.08
2022-08-17T04:30:12.445Z,19.00
2022-08-17T04:33:19.221Z,17.92
2022-08-17T04:35:48.938Z,16.92
2022-08-17T04:38:18.687Z,17.42
2022-08-17T04:41:04.430Z,18.98
2022-08-17T04:43:33.157Z,18.88
2022-08-17T04:46:02.013Z,18.85
2022-08-17T04:48:36.263Z,18.17
2022-08-17T04:51:16.463Z,19.17
2022-08-17T04:53:46.535Z,19.33
2022-08-17T04:56:20.506Z,18.65
2022-08-17T04:58:50.119Z,19.70
2022-08-17T05:01:23.953Z,18.70
2022-08-17T05:03:53.531Z,18.58
2022-08-17T05:06:20.233Z,19.42
2022-08-17T05:08:46.644Z,18.20
2022-08-17T05:11:13.056Z,17.83
2022-08-17T05:13:39.472Z,19.38
2022-08-17T05:16:06.344Z,19.48
2022-08-17T05:18:32.958Z,19.83
2022-08-17T05:20:59.544Z,18.33
2022-08-17T05:23:27.567Z,17.38
2022-08-17T05:26:11.045Z,17.42
2022-08-17T05:28:49.007Z,18.55
2022-08-17T05:31:17.457Z,18.02
2022-08-17T05:33:46.306Z,17.40
2022-08-17T05:36:42.985Z,16.95
2022-08-17T05:39:01.175Z,17.70
2022-08-17T05:41:27.582Z,16.98
2022-08-17T05:43:56.390Z,17.15
2022-08-17T05:46:34.978Z,17.02
2022-08-17T05:49:04.738Z,17.08
2022-08-17T05:51:33.810Z,17.45
2022-08-17T05:54:39.312Z,17.25
2022-08-17T05:57:11.494Z,17.65
2022-08-17T05:59:55.856Z,17.73
2022-08-17T06:02:35.040Z,16.30
2022-08-17T06:05:34.440Z,16.02
2022-08-17T06:08:25.301Z,18.58
2022-08-17T06:10:54.811Z,18.55
2022-08-17T06:13:59.424Z,19.02
2022-08-17T06:16:34.490Z,18.42
2022-08-17T06:19:14.536Z,19.02
2022-08-17T06:21:44.665Z,19.65
2022-08-17T06:24:29.095Z,18.90
2022-08-17T06:27:01.305Z,20.35
2022-08-17T06:29:51.634Z,19.58
2022-08-17T06:32:18.570Z,19.92
2022-08-17T06:34:46.175Z,20.10
2022-08-17T06:37:18.823Z,20.83
2022-08-17T06:39:55.374Z,20.38
2022-08-17T06:43:02.206Z,20.52
2022-08-17T06:45:50.499Z,19.42
2022-08-17T06:48:40.173Z,18.58
2022-08-17T06:51:19.675Z,18.83
2022-08-17T06:54:13.335Z,18.67
2022-08-17T06:56:53.547Z,18.92
2022-08-17T06:59:55.671Z,17.65
2022-08-17T07:02:55.508Z,17.30
2022-08-17T07:05:26.065Z,16.50
2022-08-17T07:08:13.972Z,16.65
2022-08-17T07:10:53.045Z,15.77
2022-08-17T07:13:19.383Z,17.65
2022-08-17T07:15:52.750Z,16.02
2022-08-17T07:18:24.569Z,16.23
2022-08-17T07:20:59.693Z,16.27
2022-08-17T07:23:38.124Z,16.52
2022-08-17T07:26:06.677Z,16.25
2022-08-17T07:28:35.517Z,16.83
2022-08-17T07:31:04.539Z,15.73
2022-08-17T07:33:33.262Z,15.40
2022-08-17T07:36:00.229Z,15.57
2022-08-17T07:38:29.575Z,15.43
2022-08-17T07:40:57.520Z,16.45
2022-08-17T07:43:26.456Z,15.05
2022-08-17T07:46:29.982Z,16.45
2022-08-17T07:49:03.006Z,16.10
2022-08-17T07:51:32.533Z,16.08
2022-08-17T07:54:14.101Z,15.13
2022-08-17T07:56:48.678Z,14.95
2022-08-17T07:59:33.519Z,16.15
2022-08-17T08:02:07.879Z,15.95
2022-08-17T08:04:59.687Z,15.80
2022-08-17T08:07:34.694Z,16.20
2022-08-17T08:10:07.317Z,15.70
2022-08-17T08:12:40.963Z,15.43
2022-08-17T08:15:08.630Z,15.68
2022-08-17T08:17:46.115Z,15.48
2022-08-17T08:20:34.845Z,16.13
2022-08-17T08:23:20.243Z,16.27
2022-08-17T08:25:56.674Z,15.90
2022-08-17T08:28:38.410Z,14.60
2022-08-17T08:31:18.976Z,13.55
2022-08-17T08:34:09.041Z,14.30
2022-08-17T08:37:36.644Z,15.00
2022-08-17T08:40:31.079Z,16.45
2022-08-17T08:43:20.250Z,15.80
2022-08-17T08:46:04.991Z,16.40
2022-08-17T08:49:17.103Z,15.60
2022-08-17T08:51:55.282Z,13.68
2022-08-17T08:54:58.329Z,13.23
2022-08-17T09:21:52.594Z,14.27
2022-08-17T09:24:35.529Z,15.15
2022-08-17T09:27:22.000Z,11.00
2022-08-17T09:29:56.251Z,12.70
2022-08-17T09:32:31.459Z,11.80
2022-08-17T09:35:03.977Z,14.52
2022-08-17T09:37:39.667Z,14.45
2022-08-17T09:40:22.240Z,14.77
2022-08-17T09:42:54.186Z,15.05
2022-08-17T09:45:31.849Z,15.85
2022-08-17T09:48:14.665Z,14.50
2022-08-17T09:51:12.957Z,14.75
2022-08-17T09:53:39.558Z,14.30
2022-08-17T09:56:24.232Z,14.27
2022-08-17T09:59:02.486Z,15.60
2022-08-17T10:01:37.600Z,14.48
2022-08-17T10:04:38.175Z,15.13
2022-08-17T10:07:21.151Z,15.90
2022-08-17T10:10:14.328Z,15.02
2022-08-17T10:13:04.105Z,16.02
2022-08-17T10:16:08.887Z,16.15
2022-08-17T10:18:42.953Z,16.27
2022-08-17T10:21:32.489Z,16.75
2022-08-17T10:24:33.698Z,15.93
2022-08-17T10:29:47.311Z,16.05
2022-08-17T10:32:25.238Z,15.18
2022-08-17T10:35:20.150Z,15.60
2022-08-17T10:37:59.159Z,16.77
2022-08-17T10:40:45.349Z,16.55
2022-08-17T10:43:20.613Z,16.35
2022-08-17T10:46:09.251Z,16.83
2022-08-17T10:48:42.559Z,16.40
2022-08-17T10:51:33.644Z,16.30
2022-08-17T10:56:50.876Z,16.48
2022-08-17T10:59:35.607Z,17.02
2022-08-17T11:02:04.905Z,15.90
2022-08-17T11:04:53.076Z,16.52
2022-08-17T11:07:37.621Z,15.75
2022-08-17T11:10:42.169Z,17.42
2022-08-17T11:13:43.506Z,16.58
2022-08-17T11:16:29.553Z,16.88
2022-08-17T11:19:49.897Z,16.33
2022-08-17T11:22:22.425Z,16.25
2022-08-17T11:24:52.349Z,17.63
2022-08-17T11:27:27.522Z,16.08
2022-08-17T11:30:02.562Z,17.10
2022-08-17T11:32:47.350Z,17.23
2022-08-17T11:35:20.187Z,17.80
2022-08-17T11:38:01.755Z,18.95
2022-08-17T11:41:07.198Z,20.20
2022-08-17T11:44:10.388Z,22.08
2022-08-17T11:47:01.524Z,23.80
2022-08-17T11:52:38.002Z,22.92
2022-08-17T11:55:33.940Z,24.23
2022-08-17T11:58:15.012Z,22.25
2022-08-17T12:00:49.197Z,21.30
2022-08-17T12:03:31.560Z,21.38
2022-08-17T12:06:10.838Z,19.80
2022-08-17T12:08:43.266Z,16.70
2022-08-17T12:11:55.575Z,20.45
2022-08-17T12:14:09.488Z,21.23
2022-08-17T12:16:38.270Z,20.55
2022-08-17T12:19:05.171Z,20.63
2022-08-17T12:21:51.171Z,20.55
2022-08-17T12:24:36.298Z,20.58
2022-08-17T12:27:05.752Z,21.35
2022-08-17T12:29:38.345Z,20.65
2022-08-17T12:32:07.040Z,20.98
2022-08-17T12:34:40.608Z,20.17
2022-08-17T12:37:15.216Z,20.05
2022-08-17T12:39:57.580Z,20.83
2022-08-17T12:42:30.987Z,21.35
2022-08-17T12:44:58.350Z,21.13
2022-08-17T12:47:25.931Z,22.40
2022-08-17T12:50:08.054Z,22.60
2022-08-17T12:52:58.525Z,22.25
2022-08-17T12:55:33.841Z,22.80
2022-08-17T12:58:01.840Z,20.75
2022-08-17T13:00:47.517Z,23.02
2022-08-17T13:03:21.674Z,20.50
2022-08-17T13:06:02.873Z,23.08
2022-08-17T13:08:32.964Z,22.55
2022-08-17T13:11:03.294Z,22.95
2022-08-17T13:13:36.006Z,23.33
2022-08-17T13:16:09.356Z,23.13
2022-08-17T13:18:43.565Z,24.65
2022-08-17T13:21:28.517Z,22.10
2022-08-17T13:24:04.191Z,22.35
2022-08-17T13:26:36.938Z,22.42
2022-08-17T13:29:16.423Z,22.05
2022-08-17T13:31:52.116Z,23.08
2022-08-17T13:34:29.107Z,22.65
2022-08-17T13:37:26.878Z,22.60
2022-08-17T13:40:07.278Z,22.60
2022-08-17T13:42:51.922Z,22.95
2022-08-17T13:45:36.647Z,21.83
2022-08-17T13:48:08.665Z,23.35
2022-08-17T13:50:45.588Z,22.85
2022-08-17T13:53:19.558Z,21.15
2022-08-17T13:55:53.701Z,23.17
2022-08-17T13:58:29.662Z,23.20
2022-08-17T14:00:56.350Z,23.20
2022-08-17T14:03:23.989Z,24.15
2022-08-17T14:05:52.250Z,23.90
2022-08-17T14:08:20.601Z,23.80
2022-08-17T14:10:57.321Z,22.73
2022-08-17T14:13:23.901Z,22.95
2022-08-17T14:15:55.581Z,23.85
2022-08-17T14:18:42.042Z,22.75
2022-08-17T14:21:09.951Z,23.02
2022-08-17T14:23:37.064Z,22.45
2022-08-17T14:26:04.082Z,21.05
2022-08-17T14:28:30.487Z,22.05
2022-08-17T14:30:59.796Z,21.38
2022-08-17T14:33:26.266Z,21.23
2022-08-17T14:35:53.570Z,22.45
2022-08-17T14:38:20.346Z,23.35
2022-08-17T14:40:47.860Z,22.50
2022-08-17T14:43:15.705Z,23.55
2022-08-17T14:45:42.845Z,22.85
2022-08-17T14:48:10.088Z,22.30
2022-08-17T14:50:40.560Z,22.90
2022-08-17T14:53:10.938Z,23.27
2022-08-17T14:55:39.707Z,23.30
2022-08-17T14:58:06.775Z,21.95
2022-08-17T15:00:33.999Z,21.65
2022-08-17T15:03:01.719Z,22.65
2022-08-17T15:05:31.871Z,21.73
2022-08-17T15:08:00.879Z,23.58
2022-08-17T15:10:29.183Z,20.65
2022-08-17T15:12:56.196Z,21.10
2022-08-17T15:15:23.160Z,19.95
2022-08-17T15:17:51.119Z,19.40
2022-08-17T15:20:20.698Z,20.77
2022-08-17T15:22:55.187Z,19.27
2022-08-17T15:25:22.313Z,20.35
2022-08-17T15:27:48.835Z,21.80
2022-08-17T15:30:15.690Z,21.23
2022-08-17T15:32:50.660Z,22.27
2022-08-17T15:35:27.958Z,21.73
2022-08-17T15:38:11.650Z,21.02
2022-08-17T15:40:41.757Z,22.27
2022-08-17T15:43:24.769Z,22.00
2022-08-17T15:46:01.914Z,22.13
2022-08-17T15:48:41.364Z,22.40
2022-08-17T15:51:12.994Z,23.20
2022-08-17T15:53:40.503Z,23.10
2022-08-17T15:56:07.463Z,22.33
2022-08-17T15:58:35.306Z,22.75
2022-08-17T16:01:15.023Z,23.65
2022-08-17T16:04:04.578Z,23.60
2022-08-17T16:06:31.957Z,22.80
2022-08-17T16:08:59.525Z,22.58
2022-08-17T16:11:26.350Z,23.75
2022-08-17T16:13:54.730Z,23.98
2022-08-17T16:16:23.438Z,22.15
2022-08-17T16:18:53.532Z,23.45
2022-08-17T16:21:29.528Z,23.38
2022-08-17T16:24:05.704Z,24.17
2022-08-17T16:26:40.415Z,22.80
2022-08-17T16:29:07.587Z,23.23
2022-08-17T16:31:35.858Z,23.15
2022-08-17T16:34:18.046Z,22.38
2022-08-17T16:36:54.640Z,23.77
2022-08-17T16:39:22.614Z,22.25
2022-08-17T16:41:50.189Z,22.83
2022-08-17T16:44:18.494Z,23.77
2022-08-17T16:46:46.312Z,23.58
2022-08-17T16:49:24.366Z,24.38
2022-08-17T16:52:01.571Z,24.00
2022-08-17T16:54:27.952Z,24.65
2022-08-17T16:56:54.358Z,25.02
2022-08-17T16:59:30.796Z,24.40
2022-08-17T17:02:15.412Z,24.02
2022-08-17T17:05:00.952Z,25.23
2022-08-17T17:07:40.105Z,24.10
2022-08-17T17:10:33.393Z,24.65
2022-08-17T17:13:04.014Z,24.20
2022-08-17T17:18:23.044Z,25.10
2022-08-17T17:20:56.644Z,24.23
2022-08-17T17:23:40.537Z,26.13
2022-08-17T17:26:39.858Z,25.90
2022-08-17T17:29:29.634Z,25.38
2022-08-17T17:32:25.746Z,26.15
2022-08-17T17:35:00.986Z,25.35
2022-08-17T17:37:33.750Z,26.92
2022-08-17T17:40:12.426Z,25.58
2022-08-17T17:42:41.793Z,25.13
2022-08-17T17:45:09.021Z,26.25
2022-08-17T17:47:36.566Z,25.75
2022-08-17T17:50:05.869Z,25.65
2022-08-17T17:52:40.913Z,26.15
2022-08-17T17:55:26.209Z,26.33
2022-08-17T17:57:58.649Z,26.17
2022-08-17T18:00:35.053Z,25.52
2022-08-17T18:03:24.327Z,26.20
2022-08-17T18:06:12.942Z,26.30
2022-08-17T18:09:09.014Z,26.67
2022-08-17T18:11:51.506Z,26.52
2022-08-17T18:15:03.709Z,26.77
2022-08-17T18:17:30.899Z,25.67
2022-08-17T18:19:57.380Z,26.05
2022-08-17T18:22:24.262Z,27.27
2022-08-17T18:24:56.352Z,27.77
2022-08-17T18:27:28.415Z,24.00
2022-08-17T18:29:57.992Z,28.48
2022-08-17T18:32:28.813Z,28.80
2022-08-17T18:34:57.281Z,28.70
2022-08-17T18:37:37.571Z,28.48
2022-08-17T18:40:16.185Z,28.40
2022-08-17T18:42:58.856Z,28.40
2022-08-17T18:45:38.077Z,29.55
2022-08-17T18:48:06.487Z,29.58
2022-08-17T18:50:44.518Z,29.70
2022-08-17T18:53:39.528Z,29.92
2022-08-17T18:56:27.023Z,29.90
2022-08-17T18:59:00.322Z,28.90
2022-08-17T19:01:59.865Z,30.20
2022-08-17T19:04:34.547Z,29.67
2022-08-17T19:07:07.445Z,28.80
2022-08-17T19:09:38.194Z,31.23
2022-08-17T19:12:10.097Z,29.95
2022-08-17T19:14:36.685Z,30.40
2022-08-17T19:17:14.071Z,30.88
2022-08-17T19:20:16.660Z,30.48
2022-08-17T19:23:01.454Z,30.27
2022-08-17T19:25:34.156Z,30.35
2022-08-17T19:28:21.481Z,31.10
2022-08-17T19:30:51.046Z,31.65
2022-08-17T19:33:17.610Z,31.45
2022-08-17T19:36:09.734Z,30.75
2022-08-17T19:39:04.607Z,31.17
2022-08-17T19:41:43.084Z,30.10
2022-08-17T19:44:51.741Z,30.48
2022-08-17T19:47:53.104Z,31.35
2022-08-17T19:50:43.616Z,30.40
2022-08-17T19:54:04.517Z,30.65
2022-08-17T19:56:29.363Z,30.58
2022-08-17T19:59:10.186Z,31.23
2022-08-17T20:01:46.708Z,30.50
2022-08-17T20:04:38.942Z,30.40
2022-08-17T20:07:30.041Z,29.27
2022-08-17T20:10:08.835Z,30.70
2022-08-17T20:12:38.850Z,30.45
2022-08-17T20:15:17.723Z,30.83
2022-08-17T20:17:46.739Z,31.13
2022-08-17T20:20:34.807Z,30.33
2022-08-17T20:23:12.393Z,30.42
2022-08-17T20:25:47.356Z,30.23
2022-08-17T20:28:29.413Z,30.05
2022-08-17T20:30:56.685Z,31.35
2022-08-17T20:33:36.641Z,31.55
2022-08-17T20:36:19.768Z,32.63
2022-08-17T20:38:55.730Z,31.75
2022-08-17T20:41:23.957Z,30.73
2022-08-17T20:43:56.068Z,32.20
2022-08-17T20:46:37.859Z,32.45
2022-08-17T20:49:08.307Z,31.40
2022-08-17T20:52:00.684Z,31.48
2022-08-17T20:54:51.890Z,31.98
2022-08-17T20:57:47.183Z,32.38
2022-08-17T21:00:41.321Z,32.13
2022-08-17T21:03:23.072Z,32.47
2022-08-17T21:05:59.884Z,32.30
2022-08-17T21:08:33.476Z,32.78
2022-08-17T21:11:20.803Z,31.90
2022-08-17T21:14:19.153Z,31.80
2022-08-17T21:16:58.599Z,31.05
2022-08-17T21:20:08.158Z,32.20
2022-08-17T21:22:45.393Z,33.60
2022-08-17T21:25:24.481Z,32.85
2022-08-17T21:28:13.305Z,32.75
2022-08-17T21:30:39.749Z,31.88
2022-08-17T21:33:20.301Z,31.30
2022-08-17T21:35:59.014Z,31.63
2022-08-17T21:38:43.930Z,32.35
2022-08-17T21:41:20.487Z,32.10
2022-08-17T21:43:50.654Z,33.58
2022-08-17T21:46:36.913Z,31.75
2022-08-17T21:49:13.533Z,32.38
2022-08-17T21:51:45.736Z,33.20
2022-08-17T21:54:38.623Z,31.52
2022-08-17T21:57:14.330Z,30.35
2022-08-17T21:59:42.856Z,32.92
2022-08-17T22:02:16.834Z,32.22
2022-08-17T22:04:43.750Z,33.20
2022-08-17T22:07:14.075Z,32.72
2022-08-17T22:09:45.587Z,31.70
2022-08-17T22:12:17.342Z,32.45
2022-08-17T22:14:56.727Z,32.15
2022-08-17T22:17:36.449Z,32.90
2022-08-17T22:20:14.107Z,31.63
2022-08-17T22:23:05.146Z,32.70
2022-08-17T22:25:35.775Z,32.80
2022-08-17T22:28:05.719Z,32.25
2022-08-17T22:30:35.199Z,33.80
2022-08-17T22:33:32.764Z,33.15
2022-08-17T22:36:14.349Z,32.45
2022-08-17T22:38:43.491Z,33.20
2022-08-17T22:41:34.580Z,34.50
2022-08-17T22:44:31.904Z,34.05
2022-08-17T22:47:02.954Z,34.08
2022-08-17T22:52:32.393Z,35.25
2022-08-17T22:55:34.698Z,34.25
2022-08-17T22:58:20.402Z,35.85
2022-08-17T23:00:48.975Z,36.38
2022-08-17T23:03:24.487Z,36.13
2022-08-17T23:06:11.004Z,37.08
2022-08-17T23:08:54.609Z,35.10
2022-08-17T23:11:42.970Z,37.10
2022-08-17T23:14:19.660Z,35.30
2022-08-17T23:16:47.282Z,35.70
2022-08-17T23:19:16.665Z,35.25
2022-08-17T23:21:46.645Z,36.58
2022-08-17T23:24:22.343Z,35.88
2022-08-17T23:26:48.982Z,36.63
2022-08-17T23:29:15.604Z,36.13
2022-08-17T23:31:42.128Z,37.22
2022-08-17T23:34:13.377Z,37.95
2022-08-17T23:36:40.129Z,37.00
2022-08-17T23:39:07.291Z,38.75
2022-08-17T23:41:38.267Z,40.70
2022-08-17T23:44:06.269Z,40.22
2022-08-17T23:46:33.034Z,41.45
2022-08-17T23:49:00.254Z,39.40
2022-08-17T23:51:31.346Z,41.17
2022-08-17T23:56:37.354Z,39.58
2022-08-17T23:59:03.774Z,40.63
